sensor_id;sensor_type;location;lat;lon;timestamp;P1;P2;P0
26720;PMS1003;15950;51.112;6.966;2022-12-13T00:02:03;033;023;
26720;PMS1003;15950;51.112;6.966;2022-12-13T00:05:03;027;019;
26720;PMS1003;15950;51.112;6.966;2022-12-13T00:08:03;026;018;
26720;PMS1003;15950;51.112;6.966;2022-12-13T00:11:04;024;017;
26720;PMS1003;15950;51.112;6.966;2022-12-13T00:14:03;020;014;
26720;PMS1003;15950;51.112;6.966;2022-12-13T00:17:03;023;017;
26720;PMS1003;15950;51.112;6.966;2022-12-13T00:20:03;019;013;
26720;PMS1003;15950;51.112;6.966;2022-12-13T00:23:02;017;012;
26720;PMS1003;15950;51.112;6.966;2022-12-13T00:26:06;021;015;
26720;PMS1003;15950;51.112;6.966;2022-12-13T00:29:03;024;022;
26720;PMS1003;15950;51.112;6.966;2022-12-13T00:32:03;021;015;
26720;PMS1003;15950;51.112;6.966;2022-12-13T00:35:03;023;016;
26720;PMS1003;15950;51.112;6.966;2022-12-13T00:38:02;018;013;
26720;PMS1003;15950;51.112;6.966;2022-12-13T00:44:03;020;014;
26720;PMS1003;15950;51.112;6.966;2022-12-13T00:47:03;017;012;
26720;PMS1003;15950;51.112;6.966;2022-12-13T00:50:03;019;015;
26720;PMS1003;15950;51.112;6.966;2022-12-13T00:53:03;026;018;
26720;PMS1003;15950;51.112;6.966;2022-12-13T00:56:03;021;015;
26720;PMS1003;15950;51.112;6.966;2022-12-13T00:59:03;022;018;
26720;PMS1003;15950;51.112;6.966;2022-12-13T01:02:02;023;017;
26720;PMS1003;15950;51.112;6.966;2022-12-13T01:05:03;019;013;
26720;PMS1003;15950;51.112;6.966;2022-12-13T01:08:03;019;013;
26720;PMS1003;15950;51.112;6.966;2022-12-13T01:11:03;023;016;
26720;PMS1003;15950;51.112;6.966;2022-12-13T01:14:02;022;017;
26720;PMS1003;15950;51.112;6.966;2022-12-13T01:17:03;023;017;
26720;PMS1003;15950;51.112;6.966;2022-12-13T01:20:03;021;015;
26720;PMS1003;15950;51.112;6.966;2022-12-13T01:23:03;029;024;
26720;PMS1003;15950;51.112;6.966;2022-12-13T01:26:06;020;014;
26720;PMS1003;15950;51.112;6.966;2022-12-13T01:29:02;019;014;
26720;PMS1003;15950;51.112;6.966;2022-12-13T01:32:03;021;015;
26720;PMS1003;15950;51.112;6.966;2022-12-13T01:35:02;019;013;
26720;PMS1003;15950;51.112;6.966;2022-12-13T01:38:02;030;021;
26720;PMS1003;15950;51.112;6.966;2022-12-13T01:41:02;029;022;
26720;PMS1003;15950;51.112;6.966;2022-12-13T01:44:03;027;019;
26720;PMS1003;15950;51.112;6.966;2022-12-13T01:47:02;021;015;
26720;PMS1003;15950;51.112;6.966;2022-12-13T01:50:04;024;017;
26720;PMS1003;15950;51.112;6.966;2022-12-13T01:53:03;019;014;
26720;PMS1003;15950;51.112;6.966;2022-12-13T01:56:04;016;011;
26720;PMS1003;15950;51.112;6.966;2022-12-13T01:59:03;021;015;
26720;PMS1003;15950;51.112;6.966;2022-12-13T02:02:02;021;015;
26720;PMS1003;15950;51.112;6.966;2022-12-13T02:08:02;023;017;
26720;PMS1003;15950;51.112;6.966;2022-12-13T02:11:03;020;015;
26720;PMS1003;15950;51.112;6.966;2022-12-13T02:14:02;017;012;
26720;PMS1003;15950;51.112;6.966;2022-12-13T02:35:04;026;022;
26720;PMS1003;15950;51.112;6.966;2022-12-13T02:41:10;019;013;
26720;PMS1003;15950;51.112;6.966;2022-12-13T02:44:07;014;010;
26720;PMS1003;15950;51.112;6.966;2022-12-13T02:50:03;016;011;
26720;PMS1003;15950;51.112;6.966;2022-12-13T02:53:03;018;013;
26720;PMS1003;15950;51.112;6.966;2022-12-13T02:56:02;021;016;
26720;PMS1003;15950;51.112;6.966;2022-12-13T02:59:04;019;013;
26720;PMS1003;15950;51.112;6.966;2022-12-13T03:08:12;019;014;
26720;PMS1003;15950;51.112;6.966;2022-12-13T03:11:07;014;010;
26720;PMS1003;15950;51.112;6.966;2022-12-13T03:14:03;015;012;
26720;PMS1003;15950;51.112;6.966;2022-12-13T03:17:03;020;014;
26720;PMS1003;15950;51.112;6.966;2022-12-13T03:20:03;016;013;
26720;PMS1003;15950;51.112;6.966;2022-12-13T03:23:02;024;017;
26720;PMS1003;15950;51.112;6.966;2022-12-13T03:29:02;020;015;
26720;PMS1003;15950;51.112;6.966;2022-12-13T03:32:02;021;015;
26720;PMS1003;15950;51.112;6.966;2022-12-13T03:35:02;027;019;
26720;PMS1003;15950;51.112;6.966;2022-12-13T03:38:02;026;018;
26720;PMS1003;15950;51.112;6.966;2022-12-13T03:41:04;021;015;
26720;PMS1003;15950;51.112;6.966;2022-12-13T03:44:03;021;015;
26720;PMS1003;15950;51.112;6.966;2022-12-13T03:47:02;031;022;
26720;PMS1003;15950;51.112;6.966;2022-12-13T03:50:02;019;013;
26720;PMS1003;15950;51.112;6.966;2022-12-13T03:53:02;030;021;
26720;PMS1003;15950;51.112;6.966;2022-12-13T03:56:03;021;015;
26720;PMS1003;15950;51.112;6.966;2022-12-13T03:59:02;026;018;
26720;PMS1003;15950;51.112;6.966;2022-12-13T04:02:02;033;023;
26720;PMS1003;15950;51.112;6.966;2022-12-13T04:05:02;021;016;
26720;PMS1003;15950;51.112;6.966;2022-12-13T04:08:02;026;018;
26720;PMS1003;15950;51.112;6.966;2022-12-13T04:11:02;027;019;
26720;PMS1003;15950;51.112;6.966;2022-12-13T04:14:02;023;016;
26720;PMS1003;15950;51.112;6.966;2022-12-13T04:17:02;023;016;
26720;PMS1003;15950;51.112;6.966;2022-12-13T04:20:02;021;019;
26720;PMS1003;15950;51.112;6.966;2022-12-13T04:23:02;023;016;
26720;PMS1003;15950;51.112;6.966;2022-12-13T04:26:02;020;014;
26720;PMS1003;15950;51.112;6.966;2022-12-13T04:29:02;023;016;
26720;PMS1003;15950;51.112;6.966;2022-12-13T04:32:03;020;014;
26720;PMS1003;15950;51.112;6.966;2022-12-13T04:35:02;020;014;
26720;PMS1003;15950;51.112;6.966;2022-12-13T04:38:02;024;017;
26720;PMS1003;15950;51.112;6.966;2022-12-13T04:41:05;024;018;
26720;PMS1003;15950;51.112;6.966;2022-12-13T04:44:03;020;016;
26720;PMS1003;15950;51.112;6.966;2022-12-13T04:47:02;021;015;
26720;PMS1003;15950;51.112;6.966;2022-12-13T04:50:02;021;015;
26720;PMS1003;15950;51.112;6.966;2022-12-13T04:53:02;019;013;
26720;PMS1003;15950;51.112;6.966;2022-12-13T04:56:03;026;020;
26720;PMS1003;15950;51.112;6.966;2022-12-13T04:59:02;019;015;
26720;PMS1003;15950;51.112;6.966;2022-12-13T05:02:04;021;015;
26720;PMS1003;15950;51.112;6.966;2022-12-13T05:05:02;020;014;
26720;PMS1003;15950;51.112;6.966;2022-12-13T05:08:02;023;016;
26720;PMS1003;15950;51.112;6.966;2022-12-13T05:11:03;021;015;
26720;PMS1003;15950;51.112;6.966;2022-12-13T05:14:02;019;013;
26720;PMS1003;15950;51.112;6.966;2022-12-13T05:17:02;020;014;
26720;PMS1003;15950;51.112;6.966;2022-12-13T05:20:02;024;017;
26720;PMS1003;15950;51.112;6.966;2022-12-13T05:23:02;020;014;
26720;PMS1003;15950;51.112;6.966;2022-12-13T05:26:03;020;014;
26720;PMS1003;15950;51.112;6.966;2022-12-13T05:29:02;023;016;
26720;PMS1003;15950;51.112;6.966;2022-12-13T05:32:02;019;013;
26720;PMS1003;15950;51.112;6.966;2022-12-13T05:35:02;019;013;
26720;PMS1003;15950;51.112;6.966;2022-12-13T05:38:02;019;013;
26720;PMS1003;15950;51.112;6.966;2022-12-13T05:41:02;022;019;
26720;PMS1003;15950;51.112;6.966;2022-12-13T05:44:02;023;016;
26720;PMS1003;15950;51.112;6.966;2022-12-13T05:47:02;024;017;
26720;PMS1003;15950;51.112;6.966;2022-12-13T05:50:02;016;011;
26720;PMS1003;15950;51.112;6.966;2022-12-13T05:53:03;026;018;
26720;PMS1003;15950;51.112;6.966;2022-12-13T05:56:02;024;018;
26720;PMS1003;15950;51.112;6.966;2022-12-13T05:59:02;019;013;
26720;PMS1003;15950;51.112;6.966;2022-12-13T06:02:02;023;018;
26720;PMS1003;15950;51.112;6.966;2022-12-13T06:05:02;026;019;
26720;PMS1003;15950;51.112;6.966;2022-12-13T06:08:02;022;018;
26720;PMS1003;15950;51.112;6.966;2022-12-13T06:11:03;019;013;
26720;PMS1003;15950;51.112;6.966;2022-12-13T06:14:02;021;015;
26720;PMS1003;15950;51.112;6.966;2022-12-13T06:17:02;021;015;
26720;PMS1003;15950;51.112;6.966;2022-12-13T06:20:03;026;018;
26720;PMS1003;15950;51.112;6.966;2022-12-13T06:23:02;023;019;
26720;PMS1003;15950;51.112;6.966;2022-12-13T06:26:03;026;018;
26720;PMS1003;15950;51.112;6.966;2022-12-13T06:29:02;020;017;
26720;PMS1003;15950;51.112;6.966;2022-12-13T06:32:02;025;018;
26720;PMS1003;15950;51.112;6.966;2022-12-13T06:35:02;024;019;
26720;PMS1003;15950;51.112;6.966;2022-12-13T06:38:02;026;022;
26720;PMS1003;15950;51.112;6.966;2022-12-13T06:41:09;024;017;
26720;PMS1003;15950;51.112;6.966;2022-12-13T06:44:03;020;016;
26720;PMS1003;15950;51.112;6.966;2022-12-13T06:47:02;019;013;
26720;PMS1003;15950;51.112;6.966;2022-12-13T06:50:02;017;012;
26720;PMS1003;15950;51.112;6.966;2022-12-13T06:53:02;021;015;
26720;PMS1003;15950;51.112;6.966;2022-12-13T06:56:03;027;019;
26720;PMS1003;15950;51.112;6.966;2022-12-13T06:59:02;023;016;
26720;PMS1003;15950;51.112;6.966;2022-12-13T07:02:02;023;016;
26720;PMS1003;15950;51.112;6.966;2022-12-13T07:05:02;026;021;
26720;PMS1003;15950;51.112;6.966;2022-12-13T07:08:02;023;016;
26720;PMS1003;15950;51.112;6.966;2022-12-13T07:11:02;030;021;
26720;PMS1003;15950;51.112;6.966;2022-12-13T07:14:02;023;017;
26720;PMS1003;15950;51.112;6.966;2022-12-13T07:17:02;016;011;
26720;PMS1003;15950;51.112;6.966;2022-12-13T07:20:03;028;020;
26720;PMS1003;15950;51.112;6.966;2022-12-13T07:23:02;019;013;
26720;PMS1003;15950;51.112;6.966;2022-12-13T07:26:02;021;016;
26720;PMS1003;15950;51.112;6.966;2022-12-13T07:29:02;028;020;
26720;PMS1003;15950;51.112;6.966;2022-12-13T07:32:02;025;018;
26720;PMS1003;15950;51.112;6.966;2022-12-13T07:35:02;027;021;
26720;PMS1003;15950;51.112;6.966;2022-12-13T07:38:02;020;014;
26720;PMS1003;15950;51.112;6.966;2022-12-13T07:41:03;028;020;
26720;PMS1003;15950;51.112;6.966;2022-12-13T07:44:02;023;016;
26720;PMS1003;15950;51.112;6.966;2022-12-13T07:47:02;023;016;
26720;PMS1003;15950;51.112;6.966;2022-12-13T07:50:02;020;014;
26720;PMS1003;15950;51.112;6.966;2022-12-13T07:53:03;020;014;
26720;PMS1003;15950;51.112;6.966;2022-12-13T07:56:03;031;022;
26720;PMS1003;15950;51.112;6.966;2022-12-13T07:59:02;019;013;
26720;PMS1003;15950;51.112;6.966;2022-12-13T08:02:02;019;013;
26720;PMS1003;15950;51.112;6.966;2022-12-13T08:05:02;021;015;
26720;PMS1003;15950;51.112;6.966;2022-12-13T08:08:03;016;011;
26720;PMS1003;15950;51.112;6.966;2022-12-13T08:11:03;017;012;
26720;PMS1003;15950;51.112;6.966;2022-12-13T08:14:02;023;016;
26720;PMS1003;15950;51.112;6.966;2022-12-13T08:17:02;025;018;
26720;PMS1003;15950;51.112;6.966;2022-12-13T08:20:05;020;014;
26720;PMS1003;15950;51.112;6.966;2022-12-13T08:23:02;023;019;
26720;PMS1003;15950;51.112;6.966;2022-12-13T08:26:02;021;015;
26720;PMS1003;15950;51.112;6.966;2022-12-13T08:29:03;020;014;
26720;PMS1003;15950;51.112;6.966;2022-12-13T08:32:03;021;015;
26720;PMS1003;15950;51.112;6.966;2022-12-13T08:35:02;020;014;
26720;PMS1003;15950;51.112;6.966;2022-12-13T08:38:02;023;016;
26720;PMS1003;15950;51.112;6.966;2022-12-13T08:41:03;017;013;
26720;PMS1003;15950;51.112;6.966;2022-12-13T08:44:02;022;016;
26720;PMS1003;15950;51.112;6.966;2022-12-13T08:47:02;023;016;
26720;PMS1003;15950;51.112;6.966;2022-12-13T08:50:02;020;014;
26720;PMS1003;15950;51.112;6.966;2022-12-13T08:53:03;022;019;
26720;PMS1003;15950;51.112;6.966;2022-12-13T08:56:03;024;017;
26720;PMS1003;15950;51.112;6.966;2022-12-13T08:59:02;016;012;
26720;PMS1003;15950;51.112;6.966;2022-12-13T09:02:03;018;014;
26720;PMS1003;15950;51.112;6.966;2022-12-13T09:05:02;016;015;
26720;PMS1003;15950;51.112;6.966;2022-12-13T09:08:02;019;013;
26720;PMS1003;15950;51.112;6.966;2022-12-13T09:11:02;016;011;
26720;PMS1003;15950;51.112;6.966;2022-12-13T09:14:02;017;012;
26720;PMS1003;15950;51.112;6.966;2022-12-13T09:17:02;021;015;
26720;PMS1003;15950;51.112;6.966;2022-12-13T09:20:04;023;016;
26720;PMS1003;15950;51.112;6.966;2022-12-13T09:23:02;013;009;
26720;PMS1003;15950;51.112;6.966;2022-12-13T09:26:02;017;012;
26720;PMS1003;15950;51.112;6.966;2022-12-13T09:29:02;016;011;
26720;PMS1003;15950;51.112;6.966;2022-12-13T09:32:02;023;018;
26720;PMS1003;15950;51.112;6.966;2022-12-13T09:35:02;020;020;
26720;PMS1003;15950;51.112;6.966;2022-12-13T09:38:02;016;011;
26720;PMS1003;15950;51.112;6.966;2022-12-13T09:41:07;019;014;
26720;PMS1003;15950;51.112;6.966;2022-12-13T09:44:06;026;018;
26720;PMS1003;15950;51.112;6.966;2022-12-13T09:47:03;016;014;
26720;PMS1003;15950;51.112;6.966;2022-12-13T09:50:11;012;008;
26720;PMS1003;15950;51.112;6.966;2022-12-13T09:53:04;012;008;
26720;PMS1003;15950;51.112;6.966;2022-12-13T09:56:02;010;007;
26720;PMS1003;15950;51.112;6.966;2022-12-13T09:59:02;013;009;
26720;PMS1003;15950;51.112;6.966;2022-12-13T10:02:09;019;015;
26720;PMS1003;15950;51.112;6.966;2022-12-13T10:11:02;012;008;
26720;PMS1003;15950;51.112;6.966;2022-12-13T10:14:08;019;013;
26720;PMS1003;15950;51.112;6.966;2022-12-13T10:17:02;011;009;
26720;PMS1003;15950;51.112;6.966;2022-12-13T10:20:03;020;014;
26720;PMS1003;15950;51.112;6.966;2022-12-13T10:23:02;018;013;
26720;PMS1003;15950;51.112;6.966;2022-12-13T10:26:02;019;013;
26720;PMS1003;15950;51.112;6.966;2022-12-13T10:29:02;016;012;
26720;PMS1003;15950;51.112;6.966;2022-12-13T10:32:02;013;009;
26720;PMS1003;15950;51.112;6.966;2022-12-13T10:35:10;013;013;
26720;PMS1003;15950;51.112;6.966;2022-12-13T10:41:02;019;013;
26720;PMS1003;15950;51.112;6.966;2022-12-13T10:44:06;016;015;
26720;PMS1003;15950;51.112;6.966;2022-12-13T10:50:02;010;007;
26720;PMS1003;15950;51.112;6.966;2022-12-13T10:53:02;015;011;
26720;PMS1003;15950;51.112;6.966;2022-12-13T10:56:02;014;010;
26720;PMS1003;15950;51.112;6.966;2022-12-13T11:02:21;016;012;
26720;PMS1003;15950;51.112;6.966;2022-12-13T11:11:03;012;008;
26720;PMS1003;15950;51.112;6.966;2022-12-13T11:14:04;015;012;
26720;PMS1003;15950;51.112;6.966;2022-12-13T11:17:12;013;009;
26720;PMS1003;15950;51.112;6.966;2022-12-13T11:23:03;014;012;
26720;PMS1003;15950;51.112;6.966;2022-12-13T11:26:07;012;008;
26720;PMS1003;15950;51.112;6.966;2022-12-13T11:35:08;014;010;
26720;PMS1003;15950;51.112;6.966;2022-12-13T11:47:03;007;005;
26720;PMS1003;15950;51.112;6.966;2022-12-13T11:50:03;010;007;
26720;PMS1003;15950;51.112;6.966;2022-12-13T12:02:10;010;007;
26720;PMS1003;15950;51.112;6.966;2022-12-13T12:05:05;009;006;
26720;PMS1003;15950;51.112;6.966;2022-12-13T12:08:08;007;005;
26720;PMS1003;15950;51.112;6.966;2022-12-13T12:11:06;014;011;
26720;PMS1003;15950;51.112;6.966;2022-12-13T12:17:02;013;009;
26720;PMS1003;15950;51.112;6.966;2022-12-13T12:20:02;013;009;
26720;PMS1003;15950;51.112;6.966;2022-12-13T12:32:05;005;004;
26720;PMS1003;15950;51.112;6.966;2022-12-13T12:47:04;007;005;
26720;PMS1003;15950;51.112;6.966;2022-12-13T13:05:07;009;006;
26720;PMS1003;15950;51.112;6.966;2022-12-13T13:08:08;010;009;
26720;PMS1003;15950;51.112;6.966;2022-12-13T13:11:03;008;006;
26720;PMS1003;15950;51.112;6.966;2022-12-13T13:14:23;013;010;
26720;PMS1003;15950;51.112;6.966;2022-12-13T13:23:02;010;007;
26720;PMS1003;15950;51.112;6.966;2022-12-13T13:26:02;005;003;
26720;PMS1003;15950;51.112;6.966;2022-12-13T13:38:03;009;006;
26720;PMS1003;15950;51.112;6.966;2022-12-13T13:41:29;007;005;
26720;PMS1003;15950;51.112;6.966;2022-12-13T13:44:25;007;005;
26720;PMS1003;15950;51.112;6.966;2022-12-13T14:29:03;007;006;
26720;PMS1003;15950;51.112;6.966;2022-12-13T14:32:07;006;004;
26720;PMS1003;15950;51.112;6.966;2022-12-13T14:35:02;013;010;
26720;PMS1003;15950;51.112;6.966;2022-12-13T14:38:03;012;008;
26720;PMS1003;15950;51.112;6.966;2022-12-13T14:41:02;010;007;
26720;PMS1003;15950;51.112;6.966;2022-12-13T14:47:03;017;013;
26720;PMS1003;15950;51.112;6.966;2022-12-13T14:50:04;015;011;
26720;PMS1003;15950;51.112;6.966;2022-12-13T14:53:02;015;011;
26720;PMS1003;15950;51.112;6.966;2022-12-13T14:59:03;009;006;
26720;PMS1003;15950;51.112;6.966;2022-12-13T15:02:03;007;005;
26720;PMS1003;15950;51.112;6.966;2022-12-13T15:05:03;007;005;
26720;PMS1003;15950;51.112;6.966;2022-12-13T15:08:02;013;009;
26720;PMS1003;15950;51.112;6.966;2022-12-13T15:11:02;021;015;
26720;PMS1003;15950;51.112;6.966;2022-12-13T15:14:02;007;007;
26720;PMS1003;15950;51.112;6.966;2022-12-13T15:17:02;010;007;
26720;PMS1003;15950;51.112;6.966;2022-12-13T15:23:13;009;006;
26720;PMS1003;15950;51.112;6.966;2022-12-13T15:29:05;009;006;
26720;PMS1003;15950;51.112;6.966;2022-12-13T15:32:02;007;005;
26720;PMS1003;15950;51.112;6.966;2022-12-13T15:35:13;013;010;
26720;PMS1003;15950;51.112;6.966;2022-12-13T15:38:02;012;008;
26720;PMS1003;15950;51.112;6.966;2022-12-13T15:41:02;010;007;
26720;PMS1003;15950;51.112;6.966;2022-12-13T15:44:04;009;007;
26720;PMS1003;15950;51.112;6.966;2022-12-13T15:47:06;011;008;
26720;PMS1003;15950;51.112;6.966;2022-12-13T15:50:03;012;008;
26720;PMS1003;15950;51.112;6.966;2022-12-13T15:56:25;006;004;
26720;PMS1003;15950;51.112;6.966;2022-12-13T15:59:03;007;005;
26720;PMS1003;15950;51.112;6.966;2022-12-13T16:02:02;011;008;
26720;PMS1003;15950;51.112;6.966;2022-12-13T16:05:06;009;008;
26720;PMS1003;15950;51.112;6.966;2022-12-13T16:08:03;005;004;
26720;PMS1003;15950;51.112;6.966;2022-12-13T16:11:02;008;006;
26720;PMS1003;15950;51.112;6.966;2022-12-13T16:17:11;007;005;
26720;PMS1003;15950;51.112;6.966;2022-12-13T16:20:07;016;011;
26720;PMS1003;15950;51.112;6.966;2022-12-13T16:23:02;005;003;
26720;PMS1003;15950;51.112;6.966;2022-12-13T16:26:02;010;008;
26720;PMS1003;15950;51.112;6.966;2022-12-13T16:29:04;009;006;
26720;PMS1003;15950;51.112;6.966;2022-12-13T16:32:02;011;008;
26720;PMS1003;15950;51.112;6.966;2022-12-13T16:35:02;007;005;
26720;PMS1003;15950;51.112;6.966;2022-12-13T16:38:02;007;005;
26720;PMS1003;15950;51.112;6.966;2022-12-13T16:41:02;010;007;
26720;PMS1003;15950;51.112;6.966;2022-12-13T16:44:02;009;006;
26720;PMS1003;15950;51.112;6.966;2022-12-13T16:47:02;011;009;
26720;PMS1003;15950;51.112;6.966;2022-12-13T16:50:02;009;007;
26720;PMS1003;15950;51.112;6.966;2022-12-13T16:53:02;017;012;
26720;PMS1003;15950;51.112;6.966;2022-12-13T16:56:02;010;007;
26720;PMS1003;15950;51.112;6.966;2022-12-13T16:59:02;010;008;
26720;PMS1003;15950;51.112;6.966;2022-12-13T17:02:02;007;005;
26720;PMS1003;15950;51.112;6.966;2022-12-13T17:05:02;012;009;
26720;PMS1003;15950;51.112;6.966;2022-12-13T17:08:02;008;007;
26720;PMS1003;15950;51.112;6.966;2022-12-13T17:11:02;008;008;
26720;PMS1003;15950;51.112;6.966;2022-12-13T17:14:02;010;007;
26720;PMS1003;15950;51.112;6.966;2022-12-13T17:17:02;009;007;
26720;PMS1003;15950;51.112;6.966;2022-12-13T17:20:02;006;004;
26720;PMS1003;15950;51.112;6.966;2022-12-13T17:23:02;009;006;
26720;PMS1003;15950;51.112;6.966;2022-12-13T17:26:05;007;005;
26720;PMS1003;15950;51.112;6.966;2022-12-13T17:29:02;008;006;
26720;PMS1003;15950;51.112;6.966;2022-12-13T17:32:02;010;007;
26720;PMS1003;15950;51.112;6.966;2022-12-13T17:35:02;015;011;
26720;PMS1003;15950;51.112;6.966;2022-12-13T17:38:02;007;005;
26720;PMS1003;15950;51.112;6.966;2022-12-13T17:41:02;010;007;
26720;PMS1003;15950;51.112;6.966;2022-12-13T17:44:02;010;007;
26720;PMS1003;15950;51.112;6.966;2022-12-13T17:47:02;010;007;
26720;PMS1003;15950;51.112;6.966;2022-12-13T17:50:02;013;010;
26720;PMS1003;15950;51.112;6.966;2022-12-13T17:53:02;012;008;
26720;PMS1003;15950;51.112;6.966;2022-12-13T17:56:03;010;007;
26720;PMS1003;15950;51.112;6.966;2022-12-13T17:59:02;014;011;
26720;PMS1003;15950;51.112;6.966;2022-12-13T18:02:02;006;004;
26720;PMS1003;15950;51.112;6.966;2022-12-13T18:05:02;010;007;
26720;PMS1003;15950;51.112;6.966;2022-12-13T18:08:02;013;009;
26720;PMS1003;15950;51.112;6.966;2022-12-13T18:11:02;007;005;
26720;PMS1003;15950;51.112;6.966;2022-12-13T18:14:02;006;004;
26720;PMS1003;15950;51.112;6.966;2022-12-13T18:17:02;006;004;
26720;PMS1003;15950;51.112;6.966;2022-12-13T18:20:02;007;005;
26720;PMS1003;15950;51.112;6.966;2022-12-13T18:23:02;007;005;
26720;PMS1003;15950;51.112;6.966;2022-12-13T18:26:05;012;008;
26720;PMS1003;15950;51.112;6.966;2022-12-13T18:29:02;011;010;
26720;PMS1003;15950;51.112;6.966;2022-12-13T18:32:02;009;006;
26720;PMS1003;15950;51.112;6.966;2022-12-13T18:35:02;010;007;
26720;PMS1003;15950;51.112;6.966;2022-12-13T18:38:02;013;009;
26720;PMS1003;15950;51.112;6.966;2022-12-13T18:41:05;006;004;
26720;PMS1003;15950;51.112;6.966;2022-12-13T18:44:03;005;005;
26720;PMS1003;15950;51.112;6.966;2022-12-13T18:47:02;006;006;
26720;PMS1003;15950;51.112;6.966;2022-12-13T18:50:02;014;010;
26720;PMS1003;15950;51.112;6.966;2022-12-13T18:53:02;007;005;
26720;PMS1003;15950;51.112;6.966;2022-12-13T18:56:06;013;009;
26720;PMS1003;15950;51.112;6.966;2022-12-13T18:59:02;010;007;
26720;PMS1003;15950;51.112;6.966;2022-12-13T19:02:02;012;008;
26720;PMS1003;15950;51.112;6.966;2022-12-13T19:05:02;007;005;
26720;PMS1003;15950;51.112;6.966;2022-12-13T19:08:02;009;006;
26720;PMS1003;15950;51.112;6.966;2022-12-13T19:11:02;011;008;
26720;PMS1003;15950;51.112;6.966;2022-12-13T19:14:02;012;008;
26720;PMS1003;15950;51.112;6.966;2022-12-13T19:17:02;009;007;
26720;PMS1003;15950;51.112;6.966;2022-12-13T19:20:02;010;007;
26720;PMS1003;15950;51.112;6.966;2022-12-13T19:23:02;011;008;
26720;PMS1003;15950;51.112;6.966;2022-12-13T19:26:05;005;003;
26720;PMS1003;15950;51.112;6.966;2022-12-13T19:29:02;010;008;
26720;PMS1003;15950;51.112;6.966;2022-12-13T19:32:02;008;006;
26720;PMS1003;15950;51.112;6.966;2022-12-13T19:35:02;007;005;
26720;PMS1003;15950;51.112;6.966;2022-12-13T19:38:02;005;003;
26720;PMS1003;15950;51.112;6.966;2022-12-13T19:41:05;012;008;
26720;PMS1003;15950;51.112;6.966;2022-12-13T19:44:02;006;005;
26720;PMS1003;15950;51.112;6.966;2022-12-13T19:47:02;007;005;
26720;PMS1003;15950;51.112;6.966;2022-12-13T19:50:02;010;007;
26720;PMS1003;15950;51.112;6.966;2022-12-13T19:53:02;009;006;
26720;PMS1003;15950;51.112;6.966;2022-12-13T19:59:02;006;004;
26720;PMS1003;15950;51.112;6.966;2022-12-13T20:02:02;006;004;
26720;PMS1003;15950;51.112;6.966;2022-12-13T20:05:02;007;006;
26720;PMS1003;15950;51.112;6.966;2022-12-13T20:08:02;007;005;
26720;PMS1003;15950;51.112;6.966;2022-12-13T20:14:02;006;004;
26720;PMS1003;15950;51.112;6.966;2022-12-13T20:17:02;007;005;
26720;PMS1003;15950;51.112;6.966;2022-12-13T20:20:02;005;003;
26720;PMS1003;15950;51.112;6.966;2022-12-13T20:23:02;012;010;
26720;PMS1003;15950;51.112;6.966;2022-12-13T20:26:03;007;005;
26720;PMS1003;15950;51.112;6.966;2022-12-13T20:29:02;005;004;
26720;PMS1003;15950;51.112;6.966;2022-12-13T20:32:02;007;005;
26720;PMS1003;15950;51.112;6.966;2022-12-13T20:35:02;008;006;
26720;PMS1003;15950;51.112;6.966;2022-12-13T20:38:02;005;004;
26720;PMS1003;15950;51.112;6.966;2022-12-13T20:41:02;006;004;
26720;PMS1003;15950;51.112;6.966;2022-12-13T20:44:02;005;003;
26720;PMS1003;15950;51.112;6.966;2022-12-13T20:47:02;012;008;
26720;PMS1003;15950;51.112;6.966;2022-12-13T20:50:02;009;006;
26720;PMS1003;15950;51.112;6.966;2022-12-13T20:53:02;006;004;
26720;PMS1003;15950;51.112;6.966;2022-12-13T20:56:05;006;004;
26720;PMS1003;15950;51.112;6.966;2022-12-13T20:59:05;009;006;
26720;PMS1003;15950;51.112;6.966;2022-12-13T21:02:02;002;001;
26720;PMS1003;15950;51.112;6.966;2022-12-13T21:05:02;009;006;
26720;PMS1003;15950;51.112;6.966;2022-12-13T21:08:02;006;004;
26720;PMS1003;15950;51.112;6.966;2022-12-13T21:11:02;007;005;
26720;PMS1003;15950;51.112;6.966;2022-12-13T21:17:02;007;005;
26720;PMS1003;15950;51.112;6.966;2022-12-13T21:20:02;005;004;
26720;PMS1003;15950;51.112;6.966;2022-12-13T21:23:02;005;003;
26720;PMS1003;15950;51.112;6.966;2022-12-13T21:26:02;006;004;
26720;PMS1003;15950;51.112;6.966;2022-12-13T21:29:03;008;007;
26720;PMS1003;15950;51.112;6.966;2022-12-13T21:32:02;004;004;
26720;PMS1003;15950;51.112;6.966;2022-12-13T21:35:02;007;005;
26720;PMS1003;15950;51.112;6.966;2022-12-13T21:38:02;010;007;
26720;PMS1003;15950;51.112;6.966;2022-12-13T21:41:02;002;001;
26720;PMS1003;15950;51.112;6.966;2022-12-13T21:44:02;003;002;
26720;PMS1003;15950;51.112;6.966;2022-12-13T21:47:02;006;004;
26720;PMS1003;15950;51.112;6.966;2022-12-13T21:50:02;003;002;
26720;PMS1003;15950;51.112;6.966;2022-12-13T21:53:02;000;000;
26720;PMS1003;15950;51.112;6.966;2022-12-13T21:56:05;009;006;
26720;PMS1003;15950;51.112;6.966;2022-12-13T21:59:02;006;004;
26720;PMS1003;15950;51.112;6.966;2022-12-13T22:05:02;002;001;
26720;PMS1003;15950;51.112;6.966;2022-12-13T22:08:02;003;002;
26720;PMS1003;15950;51.112;6.966;2022-12-13T22:11:02;003;002;
26720;PMS1003;15950;51.112;6.966;2022-12-13T22:14:02;006;004;
26720;PMS1003;15950;51.112;6.966;2022-12-13T22:17:02;003;002;
26720;PMS1003;15950;51.112;6.966;2022-12-13T22:20:02;002;001;
26720;PMS1003;15950;51.112;6.966;2022-12-13T22:23:02;003;002;
26720;PMS1003;15950;51.112;6.966;2022-12-13T22:26:04;006;004;
26720;PMS1003;15950;51.112;6.966;2022-12-13T22:29:02;003;002;
26720;PMS1003;15950;51.112;6.966;2022-12-13T22:32:02;002;001;
26720;PMS1003;15950;51.112;6.966;2022-12-13T22:35:02;002;001;
26720;PMS1003;15950;51.112;6.966;2022-12-13T22:38:01;008;006;
26720;PMS1003;15950;51.112;6.966;2022-12-13T22:41:02;003;002;
26720;PMS1003;15950;51.112;6.966;2022-12-13T22:44:02;002;001;
26720;PMS1003;15950;51.112;6.966;2022-12-13T22:47:01;006;004;
26720;PMS1003;15950;51.112;6.966;2022-12-13T22:50:02;003;002;